Time;durP1;ratioP1;P1;durP2;ratioP2;P2;SDS_P1;SDS_P2;PMS_P1;PMS_P2;Temp;Humidity;BMP_temperature;BMP_pressure;BME280_temperature;BME280_humidity;BME280_pressure;Samples;Min_cycle;Max_cycle;Signal;HPM_P1;HPM_P2
2023/01/19 00:00:26;;;;;;;14.38;6.28;;;-1.00;99.90;;;;;;5070084;28;20384;-52
2023/01/19 00:02:53;;;;;;;13.27;5.60;;;-1.10;1.00;;;;;;5069403;28;20860;-53
2023/01/19 00:05:19;;;;;;;13.60;6.00;;;-1.00;1.00;;;;;;5067505;28;20817;-52
2023/01/19 00:07:45;;;;;;;19.38;5.90;;;-1.10;99.90;;;;;;5068474;28;20450;-52
2023/01/19 00:10:11;;;;;;;12.65;5.50;;;-1.10;99.90;;;;;;5069181;28;20689;-52
2023/01/19 00:12:36;;;;;;;17.50;6.40;;;-1.20;99.90;;;;;;5069660;28;20388;-52
2023/01/19 00:15:03;;;;;;;14.07;6.23;;;-1.30;1.00;;;;;;5069434;28;20818;-51
2023/01/19 00:17:28;;;;;;;15.27;5.85;;;-1.20;99.90;;;;;;5069534;28;20394;-52
2023/01/19 00:19:54;;;;;;;11.13;5.37;;;1.00;99.90;;;;;;5069272;28;20459;-52
2023/01/19 00:22:19;;;;;;;14.32;6.15;;;0.90;99.90;;;;;;5068718;28;20848;-52
2023/01/19 00:24:45;;;;;;;16.27;6.40;;;1.00;1.00;;;;;;5069428;28;20476;-53
2023/01/19 00:27:11;;;;;;;13.80;6.90;;;-1.10;1.00;;;;;;5068920;28;20399;-53
2023/01/19 00:29:36;;;;;;;14.70;6.82;;;-0.40;1.00;;;;;;5069056;28;20388;-53
2023/01/19 00:32:03;;;;;;;24.23;6.93;;;-1.10;99.90;;;;;;5070131;28;20478;-52
2023/01/19 00:34:35;;;;;;;13.32;6.25;;;-1.00;19.90;;;;;;5067205;28;20994;-53
2023/01/19 00:37:02;;;;;;;12.25;6.18;;;-1.00;1.00;;;;;;5069812;28;20375;-52
2023/01/19 00:39:27;;;;;;;17.35;7.03;;;-0.90;1.00;;;;;;5068960;28;20384;-52
2023/01/19 00:44:37;;;;;;;14.30;6.50;;;-0.90;99.90;;;;;;5069513;28;20414;-53
2023/01/19 00:47:04;;;;;;;15.27;7.37;;;-0.90;1.00;;;;;;5068981;28;20526;-52
2023/01/19 00:49:30;;;;;;;14.80;6.47;;;0.00;1.00;;;;;;5068421;28;20628;-54
2023/01/19 00:51:56;;;;;;;15.68;6.00;;;-1.00;99.90;;;;;;5068265;28;20430;-52
2023/01/19 00:54:21;;;;;;;16.40;6.60;;;-1.00;1.00;;;;;;5068552;28;20376;-52
2023/01/19 00:56:47;;;;;;;14.00;5.10;;;-1.00;99.90;;;;;;5069445;28;20425;-52
2023/01/19 00:59:12;;;;;;;13.90;6.40;;;-1.00;99.90;;;;;;5068497;28;20789;-52
2023/01/19 01:01:38;;;;;;;14.57;6.30;;;-0.90;1.00;;;;;;5068523;28;20429;-51
2023/01/19 01:04:04;;;;;;;18.40;7.13;;;-1.10;1.00;;;;;;5068643;28;20437;-52
2023/01/19 01:06:29;;;;;;;13.63;6.50;;;-1.20;99.90;;;;;;5068163;28;21039;-52
2023/01/19 01:08:55;;;;;;;14.53;6.43;;;-1.20;99.90;;;;;;5067454;28;20388;-51
2023/01/19 01:11:21;;;;;;;11.30;5.50;;;-1.30;99.90;;;;;;5068188;28;20721;-52
2023/01/19 01:13:46;;;;;;;11.85;6.28;;;-1.30;1.00;;;;;;5068610;28;20477;-52
2023/01/19 01:16:14;;;;;;;15.40;6.40;;;-1.30;1.00;;;;;;5068195;28;20856;-52
2023/01/19 01:18:40;;;;;;;17.88;7.05;;;-1.30;99.90;;;;;;5068820;28;20411;-52
2023/01/19 01:21:06;;;;;;;14.13;6.22;;;-1.30;1.00;;;;;;5068325;28;20466;-52
2023/01/19 01:23:33;;;;;;;14.45;5.70;;;-1.40;99.90;;;;;;5066174;28;20403;-51
2023/01/19 01:25:59;;;;;;;12.57;6.18;;;-1.50;28.50;;;;;;5069217;28;20414;-52
2023/01/19 01:28:25;;;;;;;17.83;6.72;;;0.70;99.90;;;;;;5067903;28;20380;-52
2023/01/19 01:30:55;;;;;;;14.65;6.60;;;-1.70;99.90;;;;;;5068425;28;20386;-52
2023/01/19 01:33:21;;;;;;;17.88;8.13;;;-1.80;99.90;;;;;;5068230;28;20467;-52
2023/01/19 01:35:48;;;;;;;14.05;5.72;;;-1.80;99.90;;;;;;5068606;28;20797;-52
2023/01/19 01:38:14;;;;;;;20.23;7.15;;;-1.80;99.90;;;;;;5067843;28;20415;-51
2023/01/19 01:40:40;;;;;;;15.98;6.28;;;-1.80;99.90;;;;;;5068194;28;20485;-52
2023/01/19 01:43:11;;;;;;;15.80;6.57;;;-1.80;99.90;;;;;;5068053;28;20892;-51
2023/01/19 01:45:39;;;;;;;16.23;6.90;;;-1.70;99.90;;;;;;5068631;28;20848;-51
2023/01/19 01:48:15;;;;;;;14.40;6.82;;;-1.70;99.90;;;;;;5067984;28;20827;-52
2023/01/19 01:53:36;;;;;;;13.95;6.45;;;-1.30;1.00;;;;;;5067577;28;20781;-52
2023/01/19 01:56:08;;;;;;;15.95;7.30;;;-1.70;51.40;;;;;;5068391;28;20841;-51
2023/01/19 01:58:35;;;;;;;13.88;6.82;;;-1.70;99.90;;;;;;5067662;28;20382;-51
2023/01/19 02:03:49;;;;;;;15.23;6.80;;;-1.70;99.90;;;;;;5066522;28;20758;-51
2023/01/19 02:06:16;;;;;;;16.48;7.22;;;-1.70;1.00;;;;;;5067517;28;20404;-52
2023/01/19 02:14:36;;;;;;;14.68;6.88;;;-1.90;1.00;;;;;;5067583;28;20390;-51
2023/01/19 02:17:02;;;;;;;13.73;6.40;;;-2.00;99.90;;;;;;5068171;28;20383;-51
2023/01/19 02:19:41;;;;;;;15.65;6.57;;;-2.00;99.90;;;;;;5067454;28;20857;-51
2023/01/19 02:22:22;;;;;;;14.93;7.07;;;-2.10;1.00;;;;;;5067675;28;20394;-52
2023/01/19 02:24:48;;;;;;;16.52;7.97;;;-2.00;1.00;;;;;;5067756;28;20782;-52
2023/01/19 02:27:15;;;;;;;15.15;7.10;;;-2.00;99.90;;;;;;5069695;28;20493;-52
2023/01/19 02:29:41;;;;;;;15.05;6.85;;;-2.00;99.90;;;;;;5071777;28;20384;-52
2023/01/19 02:32:07;;;;;;;14.82;6.90;;;-1.90;99.90;;;;;;5070248;28;20888;-51
2023/01/19 02:34:33;;;;;;;12.77;5.63;;;-1.90;1.00;;;;;;5071534;28;20697;-52
2023/01/19 02:37:05;;;;;;;16.90;6.50;;;-2.00;23.80;;;;;;5072112;28;20489;-52
2023/01/19 02:39:53;;;;;;;15.60;6.67;;;-2.10;99.90;;;;;;5070446;28;20387;-52
2023/01/19 02:42:33;;;;;;;14.02;7.00;;;-2.10;1.00;;;;;;5071118;28;20411;-52
2023/01/19 02:45:05;;;;;;;13.43;6.60;;;-2.10;1.00;;;;;;5071645;28;20402;-52
2023/01/19 02:47:42;;;;;;;16.73;6.78;;;-2.10;1.00;;;;;;5070155;28;20408;-52
2023/01/19 02:50:37;;;;;;;18.17;7.35;;;-2.10;99.90;;;;;;5071279;28;20390;-52
2023/01/19 02:53:11;;;;;;;16.53;7.03;;;-2.00;99.90;;;;;;5070677;28;20436;-52
2023/01/19 02:55:42;;;;;;;22.63;7.03;;;-0.90;1.00;;;;;;5070974;28;20445;-52
2023/01/19 02:58:14;;;;;;;12.25;5.95;;;-1.80;1.00;;;;;;5070803;28;20647;-52
2023/01/19 03:00:53;;;;;;;13.30;6.32;;;-1.90;1.00;;;;;;5071602;28;20424;-52
2023/01/19 03:03:24;;;;;;;13.60;5.70;;;-2.00;1.00;;;;;;5070727;28;20375;-52
2023/01/19 03:05:55;;;;;;;21.23;7.43;;;-2.00;1.00;;;;;;5070901;28;20415;-52
2023/01/19 03:08:45;;;;;;;14.48;6.93;;;-2.00;1.00;;;;;;5070549;28;20432;-53
2023/01/19 03:11:12;;;;;;;16.50;6.57;;;-2.00;1.00;;;;;;5071538;28;20376;-52
2023/01/19 03:13:50;;;;;;;19.58;7.40;;;-2.00;1.00;;;;;;5071117;28;20510;-52
2023/01/19 03:16:35;;;;;;;13.30;6.32;;;-2.00;1.00;;;;;;5070685;28;20452;-52
2023/01/19 03:19:14;;;;;;;16.05;7.22;;;-2.00;99.90;;;;;;5071095;28;20434;-52
2023/01/19 03:21:44;;;;;;;11.60;5.55;;;-2.00;99.90;;;;;;5070545;28;20384;-52
2023/01/19 03:24:12;;;;;;;12.80;5.70;;;-1.90;1.00;;;;;;5071154;28;20494;-52
2023/01/19 03:26:42;;;;;;;14.00;5.72;;;-1.90;1.00;;;;;;5070657;28;20485;-52
2023/01/19 03:29:12;;;;;;;16.27;5.83;;;-2.00;99.90;;;;;;5070969;28;20720;-52
2023/01/19 03:31:42;;;;;;;13.85;6.07;;;-1.90;1.00;;;;;;5069866;28;20836;-52
2023/01/19 03:34:10;;;;;;;18.30;6.55;;;-2.00;1.00;;;;;;5070729;28;20813;-52
2023/01/19 03:36:44;;;;;;;12.90;5.88;;;-1.90;15.80;;;;;;5070925;28;20790;-52
2023/01/19 03:39:13;;;;;;;12.75;5.80;;;-2.00;1.00;;;;;;5069168;28;20826;-52
2023/01/19 03:41:41;;;;;;;14.55;6.30;;;-1.90;1.00;;;;;;5070075;28;20749;-52
2023/01/19 03:44:10;;;;;;;15.32;6.50;;;-1.90;99.90;;;;;;5070808;28;20898;-52
2023/01/19 03:46:37;;;;;;;17.42;6.70;;;-2.00;99.90;;;;;;5070442;28;20507;-52
2023/01/19 03:49:02;;;;;;;13.18;5.82;;;0.20;99.90;;;;;;5070310;28;20384;-52
2023/01/19 03:51:28;;;;;;;16.77;5.90;;;-1.90;1.00;;;;;;5068297;28;20388;-52
2023/01/19 03:53:54;;;;;;;14.30;6.38;;;-1.90;1.00;;;;;;5070988;28;20470;-52
2023/01/19 03:56:23;;;;;;;14.10;5.70;;;-1.90;1.00;;;;;;5069262;28;20484;-52
2023/01/19 03:58:49;;;;;;;13.95;6.32;;;-1.80;1.00;;;;;;5068665;28;20720;-52
2023/01/19 04:01:15;;;;;;;13.05;5.47;;;-1.90;99.90;;;;;;5069318;28;20376;-52
2023/01/19 04:03:41;;;;;;;12.90;5.85;;;-1.80;99.90;;;;;;5068407;28;20384;-52
2023/01/19 04:06:11;;;;;;;12.75;5.40;;;-1.80;99.90;;;;;;5069992;28;20414;-52
2023/01/19 04:08:37;;;;;;;14.50;6.63;;;-0.70;99.90;;;;;;5070464;28;20470;-52
2023/01/19 04:11:03;;;;;;;12.40;5.88;;;-2.80;1.00;;;;;;5069842;28;20782;-52
2023/01/19 04:13:29;;;;;;;12.88;6.30;;;-1.80;1.00;;;;;;5069309;28;20460;-52
2023/01/19 04:16:02;;;;;;;12.40;5.50;;;-1.80;13.10;;;;;;5069979;28;20380;-52
2023/01/19 04:18:29;;;;;;;12.82;5.30;;;-1.80;1.00;;;;;;5069699;28;20383;-52
2023/01/19 04:20:58;;;;;;;12.43;5.32;;;-1.90;1.00;;;;;;5068388;28;20384;-52
2023/01/19 04:23:24;;;;;;;13.40;5.10;;;-1.80;1.00;;;;;;5068920;28;20494;-52
2023/01/19 04:25:49;;;;;;;12.55;5.30;;;-2.00;1.00;;;;;;5069785;28;20787;-52
2023/01/19 04:28:15;;;;;;;10.83;4.97;;;-2.00;1.00;;;;;;5069694;28;20384;-52
2023/01/19 04:30:41;;;;;;;14.35;5.38;;;-2.00;1.00;;;;;;5070462;28;20376;-52
2023/01/19 04:33:06;;;;;;;15.52;6.20;;;-2.00;1.00;;;;;;5069710;28;20411;-52
2023/01/19 04:35:34;;;;;;;14.60;5.80;;;-2.00;1.00;;;;;;5069657;28;20474;-52
2023/01/19 04:37:59;;;;;;;13.65;5.50;;;-2.00;1.00;;;;;;5070596;28;20404;-52
2023/01/19 04:40:25;;;;;;;11.40;5.23;;;-2.00;82.60;;;;;;5069730;28;20758;-52
2023/01/19 04:42:50;;;;;;;11.57;5.40;;;-2.00;1.00;;;;;;5070013;28;20382;-48
2023/01/19 04:45:16;;;;;;;11.98;5.20;;;-2.00;1.00;;;;;;5069617;28;20454;-55
2023/01/19 04:47:42;;;;;;;12.37;6.03;;;-1.90;19.00;;;;;;5069809;28;20433;-48
2023/01/19 04:50:09;;;;;;;10.90;5.53;;;-1.80;1.00;;;;;;5069999;28;20681;-48
2023/01/19 04:52:35;;;;;;;14.32;5.93;;;-1.70;99.90;;;;;;5069668;28;20457;-47
2023/01/19 04:55:05;;;;;;;15.00;5.43;;;-1.70;60.60;;;;;;5070006;28;20379;-47
2023/01/19 04:57:31;;;;;;;12.07;5.00;;;-1.70;99.90;;;;;;5069187;28;20461;-53
2023/01/19 04:59:57;;;;;;;11.15;4.70;;;-1.70;1.00;;;;;;5068969;28;20384;-54
2023/01/19 05:02:23;;;;;;;12.65;5.18;;;-1.70;1.00;;;;;;5069156;28;20486;-53
2023/01/19 05:04:49;;;;;;;12.27;5.18;;;-1.70;1.00;;;;;;5069875;28;20400;-53
2023/01/19 05:07:15;;;;;;;16.60;5.80;;;-1.80;1.00;;;;;;5069424;28;20400;-53
2023/01/19 05:09:47;;;;;;;13.65;5.60;;;-1.90;1.00;;;;;;5069347;28;20384;-53
2023/01/19 05:12:13;;;;;;;11.65;4.88;;;0.40;1.00;;;;;;5068653;28;20449;-53
2023/01/19 05:14:38;;;;;;;13.27;5.50;;;-0.90;1.00;;;;;;5069753;28;20705;-53
2023/01/19 05:17:04;;;;;;;12.00;5.67;;;-1.90;99.90;;;;;;5069761;28;20380;-53
2023/01/19 05:19:30;;;;;;;14.75;5.38;;;-1.90;1.00;;;;;;5067097;28;20410;-53
2023/01/19 05:21:55;;;;;;;13.02;4.63;;;-1.90;1.00;;;;;;5069245;28;20425;-53
2023/01/19 05:24:21;;;;;;;13.15;5.65;;;-1.80;1.00;;;;;;5069052;28;20403;-53
2023/01/19 05:26:47;;;;;;;11.37;4.87;;;-1.70;1.00;;;;;;5067968;28;20430;-53
2023/01/19 05:29:14;;;;;;;10.85;4.47;;;-1.70;99.90;;;;;;5068344;28;20447;-53
2023/01/19 05:31:40;;;;;;;10.95;4.60;;;-1.70;99.90;;;;;;5068948;28;20407;-53
2023/01/19 05:34:05;;;;;;;12.97;4.97;;;-1.70;99.90;;;;;;5068811;28;20457;-53
2023/01/19 05:36:31;;;;;;;13.57;5.47;;;-1.70;1.00;;;;;;5066998;28;20499;-52
2023/01/19 05:38:57;;;;;;;12.63;5.30;;;-1.70;73.70;;;;;;5068922;28;20383;-53
2023/01/19 05:41:22;;;;;;;12.75;5.22;;;-1.70;38.70;;;;;;5068012;28;20471;-53
2023/01/19 05:43:54;;;;;;;13.43;4.43;;;-1.80;99.90;;;;;;5069032;28;20384;-53
2023/01/19 05:46:20;;;;;;;11.68;5.43;;;-0.90;99.90;;;;;;5068329;28;20465;-53
2023/01/19 05:48:45;;;;;;;12.70;5.32;;;-1.70;99.90;;;;;;5068865;28;20391;-50
2023/01/19 05:51:11;;;;;;;14.18;5.60;;;-1.80;99.90;;;;;;5068673;28;20370;-52
2023/01/19 05:53:36;;;;;;;10.83;4.50;;;-1.80;99.90;;;;;;5067769;28;20934;-52
2023/01/19 05:56:04;;;;;;;11.90;5.30;;;-1.80;99.90;;;;;;5068705;28;20395;-52
2023/01/19 05:58:30;;;;;;;11.90;4.80;;;-1.90;99.90;;;;;;5066568;28;20392;-51
2023/01/19 06:00:56;;;;;;;14.45;4.85;;;-2.00;1.00;;;;;;5066555;28;20480;-52
2023/01/19 06:03:22;;;;;;;13.55;6.25;;;-2.00;1.00;;;;;;5067814;28;20812;-52
2023/01/19 06:05:47;;;;;;;14.02;5.28;;;-2.00;1.00;;;;;;5068834;28;20883;-52
2023/01/19 06:08:13;;;;;;;12.47;5.10;;;-1.90;1.00;;;;;;5068932;28;20506;-51
2023/01/19 06:10:39;;;;;;;13.63;5.70;;;-2.00;1.00;;;;;;5068369;28;20484;-51
2023/01/19 06:13:04;;;;;;;14.32;5.50;;;-1.90;1.00;;;;;;5068950;28;20734;-52
2023/01/19 06:15:30;;;;;;;12.90;4.68;;;-2.00;99.90;;;;;;5067837;28;20388;-51
2023/01/19 06:17:56;;;;;;;13.18;5.72;;;-2.10;1.00;;;;;;5068279;28;20470;-51
2023/01/19 06:20:21;;;;;;;13.23;5.63;;;-2.10;42.50;;;;;;5068005;28;20948;-51
2023/01/19 06:22:47;;;;;;;12.70;5.38;;;-2.10;14.00;;;;;;5068299;28;20414;-51
2023/01/19 06:25:13;;;;;;;12.80;5.50;;;-2.10;1.00;;;;;;5068135;28;20481;-52
2023/01/19 06:27:42;;;;;;;11.18;4.90;;;-2.00;12.40;;;;;;5067769;28;20400;-51
2023/01/19 06:30:09;;;;;;;12.35;5.50;;;-2.10;26.50;;;;;;5067172;28;20399;-52
2023/01/19 06:32:34;;;;;;;13.68;5.53;;;-2.10;1.00;;;;;;5068063;28;21372;-52
2023/01/19 06:35:00;;;;;;;14.20;4.85;;;-2.00;99.90;;;;;;5068757;28;20953;-52
2023/01/19 06:37:27;;;;;;;14.70;5.50;;;-2.00;99.90;;;;;;5068188;28;20772;-53
2023/01/19 06:39:53;;;;;;;13.05;5.30;;;-1.90;1.00;;;;;;5069358;28;20379;-53
2023/01/19 06:42:18;;;;;;;14.00;5.30;;;-1.80;1.00;;;;;;5066677;28;20872;-53
2023/01/19 06:44:46;;;;;;;14.70;6.10;;;-1.60;1.00;;;;;;5067531;28;20962;-53
2023/01/19 06:47:13;;;;;;;12.60;5.20;;;-1.40;1.00;;;;;;5068956;28;20490;-53
2023/01/19 06:49:39;;;;;;;14.70;5.60;;;-1.30;1.00;;;;;;5067895;28;20380;-53
2023/01/19 06:52:05;;;;;;;13.10;6.07;;;-1.40;1.00;;;;;;5068912;28;20694;-52
2023/01/19 06:54:30;;;;;;;13.83;5.87;;;-1.30;1.00;;;;;;5066832;28;20452;-52
2023/01/19 06:56:56;;;;;;;14.63;6.10;;;-1.20;99.90;;;;;;5069372;28;20392;-53
2023/01/19 06:59:22;;;;;;;10.52;4.43;;;-1.20;1.00;;;;;;5066057;28;20817;-52
2023/01/19 07:01:48;;;;;;;13.63;5.68;;;-1.20;1.00;;;;;;5068132;28;20380;-52
2023/01/19 07:04:14;;;;;;;14.20;5.93;;;1.00;1.00;;;;;;5064917;28;20395;-52
2023/01/19 07:06:40;;;;;;;14.52;6.22;;;-1.20;99.90;;;;;;5064265;28;20403;-52
2023/01/19 07:09:09;;;;;;;14.55;5.13;;;-1.20;99.90;;;;;;5050645;28;20394;-52
2023/01/19 07:11:35;;;;;;;13.52;5.60;;;-1.20;99.90;;;;;;5067447;28;20379;-52
2023/01/19 07:14:02;;;;;;;14.13;6.80;;;-1.20;99.90;;;;;;5071474;28;20791;-53
2023/01/19 07:16:27;;;;;;;13.85;5.07;;;-1.20;1.00;;;;;;5069811;28;20487;-53
2023/01/19 07:18:53;;;;;;;14.93;6.15;;;-1.30;1.00;;;;;;5071847;28;20474;-52
2023/01/19 07:21:19;;;;;;;15.75;6.03;;;-1.40;1.00;;;;;;5070929;28;20419;-52
2023/01/19 07:23:49;;;;;;;12.55;5.95;;;0.20;99.90;;;;;;5070808;28;20411;-52
2023/01/19 07:26:18;;;;;;;14.15;5.20;;;-1.60;99.90;;;;;;5071781;28;20474;-52
2023/01/19 07:28:44;;;;;;;12.70;6.07;;;-1.60;99.90;;;;;;5070428;28;20383;-52
2023/01/19 07:31:10;;;;;;;15.80;7.00;;;-1.70;99.90;;;;;;5070212;28;20440;-52
2023/01/19 07:33:35;;;;;;;15.70;6.05;;;-1.80;99.90;;;;;;5070641;28;20394;-51
2023/01/19 07:36:01;;;;;;;12.55;5.28;;;-1.80;1.00;;;;;;5070808;28;20805;-52
2023/01/19 07:38:27;;;;;;;15.03;6.70;;;-1.80;1.00;;;;;;5070849;28;20724;-52
2023/01/19 07:41:03;;;;;;;15.50;6.60;;;-1.80;99.90;;;;;;5071583;28;20429;-53
2023/01/19 07:43:29;;;;;;;16.40;6.40;;;-1.70;99.90;;;;;;5071026;28;20368;-52
2023/01/19 07:45:56;;;;;;;15.20;5.88;;;-1.70;31.70;;;;;;5071467;28;20910;-52
2023/01/19 07:48:21;;;;;;;13.20;5.37;;;-1.60;99.90;;;;;;5070613;28;20488;-53
2023/01/19 07:50:47;;;;;;;13.73;5.57;;;-1.50;99.90;;;;;;5071280;28;20479;-53
2023/01/19 07:53:13;;;;;;;12.98;5.15;;;-1.20;2.90;;;;;;5070972;28;21182;-52
2023/01/19 07:55:38;;;;;;;16.05;6.30;;;-1.70;99.90;;;;;;5069892;28;20445;-52
2023/01/19 07:58:06;;;;;;;14.57;6.15;;;-1.70;99.90;;;;;;5070956;28;20408;-52
2023/01/19 08:00:32;;;;;;;14.73;6.40;;;-1.60;99.90;;;;;;5069680;28;20396;-52
2023/01/19 08:02:59;;;;;;;16.17;5.90;;;-0.20;99.90;;;;;;5070390;28;20451;-52
2023/01/19 08:05:25;;;;;;;12.97;5.77;;;-1.30;99.90;;;;;;5070024;28;20398;-52
2023/01/19 08:07:51;;;;;;;14.50;6.20;;;-1.30;1.00;;;;;;5069823;28;21158;-53
2023/01/19 08:10:17;;;;;;;14.32;6.30;;;-0.20;1.00;;;;;;5070171;28;20395;-51
2023/01/19 08:12:43;;;;;;;14.48;5.45;;;-1.10;1.00;;;;;;5069504;28;20932;-52
2023/01/19 08:15:10;;;;;;;9.98;4.32;;;-1.00;1.00;;;;;;5070252;28;20477;-52
2023/01/19 08:17:36;;;;;;;14.50;5.83;;;-0.90;99.90;;;;;;5068909;28;20398;-53
2023/01/19 08:20:02;;;;;;;10.35;4.60;;;-0.90;89.80;;;;;;5070075;28;20384;-53
2023/01/19 08:22:27;;;;;;;10.80;4.53;;;-0.80;99.90;;;;;;5068663;28;20894;-52
2023/01/19 08:24:53;;;;;;;12.68;4.90;;;0.90;99.90;;;;;;5069073;28;20862;-53
2023/01/19 08:27:19;;;;;;;11.85;5.50;;;-0.40;8.50;;;;;;5069244;28;20439;-52
2023/01/19 08:29:45;;;;;;;12.37;4.60;;;-0.40;1.00;;;;;;5069818;28;20384;-51
2023/01/19 08:32:11;;;;;;;14.60;4.85;;;-0.30;1.00;;;;;;5069550;28;20391;-52
2023/01/19 08:34:37;;;;;;;9.70;4.60;;;-0.20;1.00;;;;;;5068956;28;20726;-51
2023/01/19 08:37:02;;;;;;;9.47;3.83;;;-0.20;1.00;;;;;;5069003;28;20392;-52
2023/01/19 08:39:28;;;;;;;12.10;4.10;;;-0.20;1.00;;;;;;5069672;28;20456;-52
2023/01/19 08:41:53;;;;;;;11.30;4.73;;;-0.20;1.00;;;;;;5069386;28;20457;-51
2023/01/19 08:44:19;;;;;;;11.90;4.50;;;0.70;1.00;;;;;;5068728;28;20422;-52
2023/01/19 08:46:46;;;;;;;11.82;4.60;;;0.60;1.00;;;;;;5069173;28;20495;-51
2023/01/19 08:49:11;;;;;;;10.65;4.20;;;0.60;99.90;;;;;;5069285;28;20395;-52
2023/01/19 08:51:37;;;;;;;10.43;4.37;;;0.90;99.90;;;;;;5068366;28;20727;-52
2023/01/19 08:54:03;;;;;;;10.65;4.43;;;2.30;99.90;;;;;;5069924;28;20770;-52
2023/01/19 08:56:29;;;;;;;8.70;3.55;;;3.40;1.00;;;;;;5069092;28;20392;-52
2023/01/19 08:58:54;;;;;;;12.23;4.23;;;3.90;1.00;;;;;;5069536;28;20748;-53
2023/01/19 09:01:21;;;;;;;9.60;4.10;;;4.00;1.00;;;;;;5068632;28;20372;-53
2023/01/19 09:03:47;;;;;;;13.02;4.50;;;3.90;1.00;;;;;;5069449;28;20375;-53
2023/01/19 09:06:16;;;;;;;10.17;3.97;;;3.50;1.00;;;;;;5069520;28;20942;-53
2023/01/19 09:08:42;;;;;;;11.30;4.07;;;3.20;1.00;;;;;;5068971;28;20453;-53
2023/01/19 09:11:13;;;;;;;10.90;4.70;;;3.80;1.00;;;;;;5068933;28;20461;-53
2023/01/19 09:13:40;;;;;;;11.40;4.32;;;3.50;1.00;;;;;;5068323;28;20831;-53
2023/01/19 09:16:07;;;;;;;11.30;4.38;;;3.00;1.00;;;;;;5068991;28;20466;-53
2023/01/19 09:18:34;;;;;;;9.77;3.85;;;2.20;1.00;;;;;;5068239;28;20380;-53
2023/01/19 09:21:01;;;;;;;9.93;4.60;;;1.80;1.00;;;;;;5069222;28;20441;-53
2023/01/19 09:23:27;;;;;;;9.55;4.38;;;1.60;1.00;;;;;;5067281;28;20916;-55
2023/01/19 09:25:58;;;;;;;12.15;4.45;;;3.60;1.00;;;;;;5068931;28;20383;-53
2023/01/19 09:28:24;;;;;;;11.82;4.50;;;2.10;1.00;;;;;;5067637;28;20431;-53
2023/01/19 09:30:50;;;;;;;13.88;4.72;;;1.70;1.00;;;;;;5069133;28;20416;-53
2023/01/19 09:33:17;;;;;;;11.50;4.88;;;1.60;1.00;;;;;;5068589;28;20410;-53
2023/01/19 09:35:44;;;;;;;9.88;4.00;;;1.60;1.00;;;;;;5068266;28;20422;-53
2023/01/19 09:38:11;;;;;;;11.77;4.50;;;1.50;1.00;;;;;;5068507;28;20512;-53
2023/01/19 09:40:58;;;;;;;9.95;3.50;;;1.50;1.00;;;;;;5066826;28;20404;-53
2023/01/19 09:43:46;;;;;;;13.80;4.45;;;1.60;1.00;;;;;;5066644;28;20669;-53
2023/01/19 09:46:20;;;;;;;9.07;4.38;;;1.70;1.00;;;;;;5068705;28;20459;-53
2023/01/19 09:48:55;;;;;;;12.63;4.50;;;1.80;1.00;;;;;;5066920;28;20396;-53
2023/01/19 09:51:24;;;;;;;10.87;4.37;;;2.00;1.00;;;;;;5068059;28;20593;-53
2023/01/19 09:54:01;;;;;;;11.63;4.28;;;3.80;1.00;;;;;;5067775;28;20884;-53
2023/01/19 09:56:29;;;;;;;11.50;4.20;;;2.50;1.00;;;;;;5067597;28;20485;-52
2023/01/19 09:58:55;;;;;;;9.00;3.60;;;3.50;1.00;;;;;;5068084;28;20829;-53
2023/01/19 10:01:46;;;;;;;9.75;4.35;;;2.40;1.00;;;;;;5067422;28;20445;-53
2023/01/19 10:04:30;;;;;;;8.98;3.50;;;2.70;1.00;;;;;;5067818;28;20387;-52
2023/01/19 10:07:11;;;;;;;9.68;4.40;;;2.70;1.00;;;;;;5068775;28;20403;-53
2023/01/19 10:09:47;;;;;;;9.98;4.22;;;4.70;1.00;;;;;;5068428;28;20887;-52
2023/01/19 10:12:50;;;;;;;9.77;4.60;;;3.20;1.00;;;;;;5068366;28;20441;-57
2023/01/19 10:15:29;;;;;;;8.53;3.90;;;3.50;1.00;;;;;;5047740;28;20477;-53
2023/01/19 10:18:15;;;;;;;11.25;4.90;;;3.30;1.00;;;;;;5048011;28;20508;-53
2023/01/19 10:20:46;;;;;;;9.90;4.10;;;3.10;1.00;;;;;;5047823;28;20381;-53
2023/01/19 10:23:34;;;;;;;11.45;4.22;;;2.80;1.00;;;;;;5048080;28;20445;-53
2023/01/19 10:26:22;;;;;;;10.13;4.22;;;2.90;1.00;;;;;;5047207;28;20862;-53
2023/01/19 10:28:52;;;;;;;10.88;4.28;;;3.20;1.00;;;;;;5047808;28;20481;-53
2023/01/19 10:31:21;;;;;;;10.88;4.30;;;3.90;1.00;;;;;;5048165;28;20373;-53
2023/01/19 10:33:51;;;;;;;9.30;3.88;;;5.90;1.00;;;;;;5048047;28;20691;-53
2023/01/19 10:36:27;;;;;;;13.40;6.85;;;4.00;1.00;;;;;;5048130;28;20487;-53
2023/01/19 10:38:53;;;;;;;12.77;6.07;;;3.80;1.00;;;;;;5047827;28;20388;-53
2023/01/19 10:41:41;;;;;;;10.77;4.23;;;3.70;1.00;;;;;;5048157;28;20390;-53
2023/01/19 10:44:09;;;;;;;10.27;3.60;;;3.50;1.00;;;;;;5047992;28;20430;-53
2023/01/19 10:46:42;;;;;;;11.15;4.20;;;3.60;1.00;;;;;;5047705;28;20459;-53
2023/01/19 10:49:23;;;;;;;9.97;4.70;;;3.90;1.00;;;;;;5051608;28;20385;-53
2023/01/19 10:51:49;;;;;;;10.57;3.55;;;6.50;1.00;;;;;;5052135;28;20381;-54
2023/01/19 10:54:15;;;;;;;9.82;3.85;;;5.70;1.00;;;;;;5051804;28;20393;-53
2023/01/19 10:56:41;;;;;;;8.85;3.70;;;4.50;1.00;;;;;;5051199;28;20744;-53
2023/01/19 10:59:31;;;;;;;9.52;3.92;;;4.40;1.00;;;;;;5051801;28;20392;-54
2023/01/19 11:02:14;;;;;;;11.40;4.50;;;4.20;1.00;;;;;;5052178;28;20456;-53
2023/01/19 11:04:40;;;;;;;9.98;4.00;;;4.50;1.00;;;;;;5051739;28;20486;-53
2023/01/19 11:07:25;;;;;;;9.15;3.67;;;4.60;1.00;;;;;;5051707;28;20397;-53
2023/01/19 11:10:22;;;;;;;11.48;4.72;;;4.50;1.00;;;;;;5050489;28;20398;-53
2023/01/19 11:12:57;;;;;;;10.23;3.42;;;4.30;1.00;;;;;;5051192;28;21210;-53
2023/01/19 11:15:24;;;;;;;10.98;3.90;;;4.10;1.00;;;;;;5050910;28;20738;-53
2023/01/19 11:17:51;;;;;;;9.48;4.10;;;3.60;1.00;;;;;;5051037;28;20394;-53
2023/01/19 11:20:25;;;;;;;9.40;3.67;;;3.60;1.00;;;;;;5051581;28;20390;-53
2023/01/19 11:23:24;;;;;;;8.90;3.10;;;3.40;1.00;;;;;;5051304;28;20941;-53
2023/01/19 11:25:51;;;;;;;10.27;4.15;;;3.30;1.00;;;;;;5051179;28;20901;-53
2023/01/19 11:28:23;;;;;;;9.75;3.60;;;5.30;1.00;;;;;;5051393;28;20412;-53
2023/01/19 11:31:00;;;;;;;9.43;3.33;;;3.50;1.00;;;;;;5051087;28;20431;-53
2023/01/19 11:33:48;;;;;;;11.00;3.00;;;4.30;1.00;;;;;;5050070;28;20407;-53
2023/01/19 11:36:20;;;;;;;8.98;3.30;;;6.10;1.00;;;;;;5052032;28;20408;-53
2023/01/19 11:38:49;;;;;;;9.68;3.60;;;4.30;1.00;;;;;;5050854;28;20466;-54
2023/01/19 11:41:21;;;;;;;10.50;4.15;;;4.30;1.00;;;;;;5051016;28;20423;-53
2023/01/19 11:44:01;;;;;;;11.13;3.20;;;4.10;1.00;;;;;;5050567;28;20484;-53
2023/01/19 11:46:32;;;;;;;8.77;4.40;;;4.60;1.00;;;;;;5049810;28;20417;-53
2023/01/19 11:49:04;;;;;;;9.57;3.80;;;3.90;1.00;;;;;;5050781;28;20389;-53
2023/01/19 11:51:58;;;;;;;12.23;4.53;;;4.00;1.00;;;;;;5050669;28;20413;-53
2023/01/19 11:54:34;;;;;;;16.80;3.88;;;3.90;1.00;;;;;;5050365;28;20384;-53
2023/01/19 11:57:01;;;;;;;9.70;3.75;;;3.40;1.00;;;;;;5050562;28;20421;-53
2023/01/19 11:59:27;;;;;;;10.25;4.25;;;3.10;1.00;;;;;;5064582;28;20901;-53
2023/01/19 12:01:57;;;;;;;10.98;4.30;;;3.20;1.00;;;;;;5050524;28;20424;-53
2023/01/19 12:04:37;;;;;;;14.93;3.65;;;3.00;1.00;;;;;;5048768;28;20561;-53
2023/01/19 12:07:09;;;;;;;9.82;4.13;;;2.70;1.00;;;;;;5051140;28;20496;-53
2023/01/19 12:09:38;;;;;;;13.13;5.00;;;4.40;1.00;;;;;;5050466;28;20362;-53
2023/01/19 12:12:07;;;;;;;11.23;4.10;;;2.80;1.00;;;;;;5049835;28;20878;-53
2023/01/19 12:14:43;;;;;;;8.63;3.55;;;2.70;1.00;;;;;;5063662;28;20384;-53
2023/01/19 12:17:19;;;;;;;10.90;4.05;;;2.70;1.00;;;;;;5070382;28;20422;-53
2023/01/19 12:19:53;;;;;;;11.15;4.40;;;2.60;1.00;;;;;;5069419;28;20482;-53
2023/01/19 12:22:20;;;;;;;8.60;3.80;;;2.50;1.00;;;;;;5070015;28;20413;-53
2023/01/19 12:25:01;;;;;;;9.68;4.15;;;2.40;1.00;;;;;;5070114;28;20478;-53
2023/01/19 12:27:39;;;;;;;10.40;4.15;;;2.40;1.00;;;;;;5068827;28;20400;-53
2023/01/19 12:30:16;;;;;;;12.05;5.00;;;2.40;1.00;;;;;;5069858;28;20400;-53
2023/01/19 12:32:42;;;;;;;12.80;5.30;;;2.50;24.20;;;;;;5068590;28;20399;-53
2023/01/19 12:35:46;;;;;;;12.07;5.00;;;2.70;53.70;;;;;;5069456;28;20380;-53
2023/01/19 12:38:40;;;;;;;14.20;6.00;;;3.00;1.00;;;;;;5068987;28;20494;-54
2023/01/19 12:41:19;;;;;;;11.70;5.15;;;3.00;1.00;;;;;;5069574;28;20384;-53
2023/01/19 12:44:06;;;;;;;14.85;6.07;;;4.60;1.00;;;;;;5067269;28;20465;-54
2023/01/19 12:46:32;;;;;;;13.02;6.50;;;3.20;1.00;;;;;;5064534;28;20500;-53
2023/01/19 12:49:36;;;;;;;12.45;5.82;;;3.30;1.00;;;;;;5069494;28;20984;-53
2023/01/19 12:52:25;;;;;;;14.23;5.60;;;3.30;1.00;;;;;;5068929;28;20950;-53
2023/01/19 12:55:02;;;;;;;10.48;4.15;;;3.20;1.00;;;;;;5069120;28;20391;-53
2023/01/19 12:57:58;;;;;;;10.95;4.40;;;3.00;1.00;;;;;;5068472;28;20879;-53
2023/01/19 13:00:24;;;;;;;10.27;4.80;;;2.80;1.00;;;;;;5068627;28;20466;-53
2023/01/19 13:02:50;;;;;;;9.77;3.93;;;2.40;99.90;;;;;;5069663;28;20407;-53
2023/01/19 13:05:47;;;;;;;12.80;5.80;;;2.40;88.60;;;;;;5067821;28;20566;-53
2023/01/19 13:08:18;;;;;;;9.50;4.18;;;2.40;99.90;;;;;;5066056;28;20419;-53
2023/01/19 13:11:01;;;;;;;12.43;4.20;;;2.40;35.00;;;;;;5068583;28;20664;-53
2023/01/19 13:13:38;;;;;;;11.20;4.55;;;2.30;88.20;;;;;;5068212;28;20388;-54
2023/01/19 13:16:23;;;;;;;11.10;4.70;;;2.30;99.90;;;;;;5069613;28;20911;-54